Terminal Aerodrome Forecast
Issued by NWS

Home | Current Version | Previous Version | Text Only | Print | Product List | Glossary On
Versions: 1 2 3 4 5 6 7 8 9 10 11 12 13 14 15 16 17 18 19 20
599
FTUS42 KFFC 270736 AAA
TAFFTY
TAF AMD
KFTY 270736Z 2708/2806 30003KT 5SM BR BKN003
      TEMPO 2708/2712 1/2SM FG OVC002
     FM271200 31006KT 3SM BR BKN008
     FM271400 32007KT P6SM SCT012
     FM271700 31007KT P6SM FEW200
     FM280300 29004KT P6SM SKC=

USA.gov is the U.S. government's official web portal to all federal, state and local government web resources and services.